sensor_id;sensor_type;location;lat;lon;timestamp;pressure;altitude;pressure_sealevel;temperature;humidity
65800;BME280;52544;48.116;11.660;2023-02-12T00:00:30;97473.66;;;3.35;83.05
65800;BME280;52544;48.116;11.660;2023-02-12T00:02:55;97474.63;;;3.33;82.96
65800;BME280;52544;48.116;11.660;2023-02-12T00:05:20;97461.66;;;3.28;82.21
65800;BME280;52544;48.116;11.660;2023-02-12T00:07:46;97456.34;;;3.31;81.80
65800;BME280;52544;48.116;11.660;2023-02-12T00:10:11;97465.16;;;3.27;81.62
65800;BME280;52544;48.116;11.660;2023-02-12T00:12:37;97468.78;;;3.23;82.16
65800;BME280;52544;48.116;11.660;2023-02-12T00:15:03;97466.28;;;3.18;83.29
65800;BME280;52544;48.116;11.660;2023-02-12T00:17:28;97459.19;;;3.23;82.78
65800;BME280;52544;48.116;11.660;2023-02-12T00:19:53;97448.72;;;3.23;83.59
65800;BME280;52544;48.116;11.660;2023-02-12T00:22:19;97447.03;;;3.21;84.20
65800;BME280;52544;48.116;11.660;2023-02-12T00:24:44;97451.28;;;3.25;85.34
65800;BME280;52544;48.116;11.660;2023-02-12T00:27:09;97452.91;;;3.29;86.04
65800;BME280;52544;48.116;11.660;2023-02-12T00:29:36;97454.44;;;3.38;87.66
65800;BME280;52544;48.116;11.660;2023-02-12T00:32:01;97456.84;;;3.44;88.80
65800;BME280;52544;48.116;11.660;2023-02-12T00:34:27;97469.94;;;3.45;89.67
65800;BME280;52544;48.116;11.660;2023-02-12T00:36:52;97462.03;;;3.47;89.97
65800;BME280;52544;48.116;11.660;2023-02-12T00:39:18;97463.84;;;3.45;90.34
65800;BME280;52544;48.116;11.660;2023-02-12T00:41:43;97456.66;;;3.51;90.17
65800;BME280;52544;48.116;11.660;2023-02-12T00:44:08;97458.41;;;3.51;91.47
65800;BME280;52544;48.116;11.660;2023-02-12T00:46:34;97457.63;;;3.47;92.32
65800;BME280;52544;48.116;11.660;2023-02-12T00:48:59;97455.84;;;3.49;91.85
65800;BME280;52544;48.116;11.660;2023-02-12T00:51:24;97454.88;;;3.52;91.82
65800;BME280;52544;48.116;11.660;2023-02-12T00:53:50;97456.63;;;3.53;92.08
65800;BME280;52544;48.116;11.660;2023-02-12T00:56:15;97457.44;;;3.55;91.61
65800;BME280;52544;48.116;11.660;2023-02-12T00:58:41;97469.66;;;3.55;91.67
65800;BME280;52544;48.116;11.660;2023-02-12T01:01:06;97472.34;;;3.53;91.87
65800;BME280;52544;48.116;11.660;2023-02-12T01:03:32;97470.53;;;3.55;92.26
65800;BME280;52544;48.116;11.660;2023-02-12T01:05:57;97473.19;;;3.54;92.88
65800;BME280;52544;48.116;11.660;2023-02-12T01:08:22;97474.97;;;3.53;92.95
65800;BME280;52544;48.116;11.660;2023-02-12T01:11:02;97457.44;;;3.55;93.98
65800;BME280;52544;48.116;11.660;2023-02-12T01:13:29;97452.19;;;3.55;94.44
65800;BME280;52544;48.116;11.660;2023-02-12T01:18:32;97449.38;;;3.63;95.42
65800;BME280;52544;48.116;11.660;2023-02-12T01:20:57;97459.91;;;3.61;94.44
65800;BME280;52544;48.116;11.660;2023-02-12T01:23:23;97453.75;;;3.62;94.74
65800;BME280;52544;48.116;11.660;2023-02-12T01:25:48;97457.28;;;3.61;94.95
65800;BME280;52544;48.116;11.660;2023-02-12T01:28:14;97460.78;;;3.60;94.83
65800;BME280;52544;48.116;11.660;2023-02-12T01:30:39;97468.75;;;3.57;94.75
65800;BME280;52544;48.116;11.660;2023-02-12T01:33:05;97461.75;;;3.56;95.27
65800;BME280;52544;48.116;11.660;2023-02-12T01:35:30;97462.59;;;3.58;94.87
65800;BME280;52544;48.116;11.660;2023-02-12T01:37:55;97473.00;;;3.60;94.84
65800;BME280;52544;48.116;11.660;2023-02-12T01:40:21;97464.31;;;3.59;95.52
65800;BME280;52544;48.116;11.660;2023-02-12T01:42:46;97466.84;;;3.62;95.44
65800;BME280;52544;48.116;11.660;2023-02-12T01:47:42;97468.59;;;3.62;94.91
65800;BME280;52544;48.116;11.660;2023-02-12T01:50:11;97465.13;;;3.61;94.94
65800;BME280;52544;48.116;11.660;2023-02-12T01:52:38;97468.56;;;3.63;95.21
65800;BME280;52544;48.116;11.660;2023-02-12T01:55:09;97469.47;;;3.61;95.40
65800;BME280;52544;48.116;11.660;2023-02-12T01:57:38;97463.50;;;3.57;95.93
65800;BME280;52544;48.116;11.660;2023-02-12T02:00:08;97465.22;;;3.58;95.84
65800;BME280;52544;48.116;11.660;2023-02-12T02:02:36;97459.91;;;3.61;96.36
65800;BME280;52544;48.116;11.660;2023-02-12T02:05:04;97458.41;;;3.53;91.36
65800;BME280;52544;48.116;11.660;2023-02-12T02:07:30;97463.66;;;3.51;88.88
65800;BME280;52544;48.116;11.660;2023-02-12T02:09:57;97450.63;;;3.48;86.83
65800;BME280;52544;48.116;11.660;2023-02-12T02:12:24;97459.38;;;3.48;86.27
65800;BME280;52544;48.116;11.660;2023-02-12T02:15:47;97458.72;;;3.40;87.15
65800;BME280;52544;48.116;11.660;2023-02-12T02:18:28;97455.22;;;3.40;88.09
65800;BME280;52544;48.116;11.660;2023-02-12T02:21:12;97465.75;;;3.38;88.37
65800;BME280;52544;48.116;11.660;2023-02-12T02:24:17;97459.66;;;3.38;88.95
65800;BME280;52544;48.116;11.660;2023-02-12T02:26:53;97454.69;;;3.29;89.13
65800;BME280;52544;48.116;11.660;2023-02-12T02:32:26;97456.50;;;3.25;86.67
65800;BME280;52544;48.116;11.660;2023-02-12T02:35:08;97457.38;;;3.25;85.92
65800;BME280;52544;48.116;11.660;2023-02-12T02:37:41;97456.59;;;3.22;85.15
65800;BME280;52544;48.116;11.660;2023-02-12T02:40:13;97454.81;;;3.24;84.76
65800;BME280;52544;48.116;11.660;2023-02-12T02:42:46;97456.44;;;3.28;83.51
65800;BME280;52544;48.116;11.660;2023-02-12T02:45:20;97451.06;;;3.33;82.69
65800;BME280;52544;48.116;11.660;2023-02-12T02:47:57;97441.53;;;3.30;82.69
65800;BME280;52544;48.116;11.660;2023-02-12T02:50:27;97438.06;;;3.30;82.49
65800;BME280;52544;48.116;11.660;2023-02-12T02:53:03;97437.47;;;3.18;83.91
65800;BME280;52544;48.116;11.660;2023-02-12T02:55:35;97444.47;;;3.18;83.12
65800;BME280;52544;48.116;11.660;2023-02-12T02:58:08;97440.41;;;3.08;84.13
65800;BME280;52544;48.116;11.660;2023-02-12T03:00:39;97437.72;;;3.11;84.55
65800;BME280;52544;48.116;11.660;2023-02-12T03:03:11;97438.47;;;3.14;83.55
65800;BME280;52544;48.116;11.660;2023-02-12T03:05:42;97447.16;;;3.16;83.49
65800;BME280;52544;48.116;11.660;2023-02-12T03:08:19;97455.91;;;3.15;84.15
65800;BME280;52544;48.116;11.660;2023-02-12T03:10:53;97450.78;;;3.11;83.90
65800;BME280;52544;48.116;11.660;2023-02-12T03:13:29;97458.53;;;3.15;84.38
65800;BME280;52544;48.116;11.660;2023-02-12T03:16:20;97452.38;;;3.16;84.29
65800;BME280;52544;48.116;11.660;2023-02-12T03:19:10;97459.31;;;3.17;84.88
65800;BME280;52544;48.116;11.660;2023-02-12T03:21:42;97462.84;;;3.16;84.46
65800;BME280;52544;48.116;11.660;2023-02-12T03:24:15;97469.72;;;3.20;84.20
65800;BME280;52544;48.116;11.660;2023-02-12T03:26:49;97468.06;;;3.16;83.91
65800;BME280;52544;48.116;11.660;2023-02-12T03:29:16;97462.13;;;3.11;83.66
65800;BME280;52544;48.116;11.660;2023-02-12T03:32:23;97467.22;;;3.16;82.98
65800;BME280;52544;48.116;11.660;2023-02-12T03:37:31;97468.25;;;3.10;83.38
65800;BME280;52544;48.116;11.660;2023-02-12T03:41:03;97466.56;;;3.08;83.34
65800;BME280;52544;48.116;11.660;2023-02-12T03:43:46;97463.03;;;3.10;83.47
65800;BME280;52544;48.116;11.660;2023-02-12T03:49:00;97458.66;;;3.11;83.59
65800;BME280;52544;48.116;11.660;2023-02-12T03:51:40;97461.22;;;3.12;84.67
65800;BME280;52544;48.116;11.660;2023-02-12T03:54:09;97473.56;;;3.07;84.92
65800;BME280;52544;48.116;11.660;2023-02-12T03:59:05;97470.41;;;2.93;85.86
65800;BME280;52544;48.116;11.660;2023-02-12T04:01:32;97476.41;;;2.98;85.51
65800;BME280;52544;48.116;11.660;2023-02-12T04:04:04;97476.31;;;3.01;85.33
65800;BME280;52544;48.116;11.660;2023-02-12T04:06:30;97472.84;;;3.00;85.13
65800;BME280;52544;48.116;11.660;2023-02-12T04:09:03;97465.72;;;3.06;84.24
65800;BME280;52544;48.116;11.660;2023-02-12T04:17:47;97486.47;;;3.13;84.19
65800;BME280;52544;48.116;11.660;2023-02-12T04:20:38;97490.72;;;3.17;83.83
65800;BME280;52544;48.116;11.660;2023-02-12T04:26:09;97495.03;;;3.20;83.55
65800;BME280;52544;48.116;11.660;2023-02-12T04:29:04;97489.00;;;3.16;84.51
65800;BME280;52544;48.116;11.660;2023-02-12T04:31:51;97489.94;;;3.14;84.17
65800;BME280;52544;48.116;11.660;2023-02-12T04:34:51;97497.78;;;3.15;83.91
65800;BME280;52544;48.116;11.660;2023-02-12T04:37:29;97506.41;;;3.17;83.67
65800;BME280;52544;48.116;11.660;2023-02-12T04:39:57;97499.47;;;3.16;83.36
65800;BME280;52544;48.116;11.660;2023-02-12T04:42:24;97503.88;;;3.14;82.61
65800;BME280;52544;48.116;11.660;2023-02-12T04:44:50;97510.13;;;3.10;83.46
65800;BME280;52544;48.116;11.660;2023-02-12T04:47:15;97505.84;;;3.06;83.18
65800;BME280;52544;48.116;11.660;2023-02-12T04:49:41;97512.06;;;3.02;83.91
65800;BME280;52544;48.116;11.660;2023-02-12T04:52:08;97511.22;;;3.00;84.25
65800;BME280;52544;48.116;11.660;2023-02-12T04:54:33;97508.53;;;3.03;83.88
65800;BME280;52544;48.116;11.660;2023-02-12T04:56:59;97494.47;;;3.07;84.34
65800;BME280;52544;48.116;11.660;2023-02-12T04:59:24;97509.41;;;3.04;85.38
65800;BME280;52544;48.116;11.660;2023-02-12T05:01:50;97510.31;;;3.01;84.83
65800;BME280;52544;48.116;11.660;2023-02-12T05:04:16;97520.03;;;2.96;85.20
65800;BME280;52544;48.116;11.660;2023-02-12T05:06:43;97524.25;;;3.03;84.69
65800;BME280;52544;48.116;11.660;2023-02-12T05:09:13;97512.06;;;3.02;84.16
65800;BME280;52544;48.116;11.660;2023-02-12T05:11:39;97514.69;;;3.02;84.54
65800;BME280;52544;48.116;11.660;2023-02-12T05:14:04;97518.16;;;3.01;84.73
65800;BME280;52544;48.116;11.660;2023-02-12T05:16:30;97515.66;;;2.98;86.02
65800;BME280;52544;48.116;11.660;2023-02-12T05:18:55;97520.78;;;3.01;86.24
65800;BME280;52544;48.116;11.660;2023-02-12T05:21:21;97520.78;;;3.01;86.24
65800;BME280;52544;48.116;11.660;2023-02-12T05:23:46;97518.28;;;2.96;86.96
65800;BME280;52544;48.116;11.660;2023-02-12T05:26:18;97521.69;;;3.00;88.00
65800;BME280;52544;48.116;11.660;2023-02-12T05:28:44;97522.81;;;2.90;87.98
65800;BME280;52544;48.116;11.660;2023-02-12T05:31:12;97523.50;;;2.96;88.87
65800;BME280;52544;48.116;11.660;2023-02-12T05:33:41;97525.22;;;2.99;88.26
65800;BME280;52544;48.116;11.660;2023-02-12T05:36:11;97532.09;;;3.01;87.69
65800;BME280;52544;48.116;11.660;2023-02-12T05:38:37;97527.66;;;3.05;88.33
65800;BME280;52544;48.116;11.660;2023-02-12T05:41:08;97530.28;;;3.05;88.16
65800;BME280;52544;48.116;11.660;2023-02-12T05:43:34;97534.63;;;3.06;88.89
65800;BME280;52544;48.116;11.660;2023-02-12T05:46:01;97539.69;;;3.12;89.38
65800;BME280;52544;48.116;11.660;2023-02-12T05:48:27;97535.31;;;3.13;89.41
65800;BME280;52544;48.116;11.660;2023-02-12T05:50:53;97540.56;;;3.13;89.52
65800;BME280;52544;48.116;11.660;2023-02-12T05:53:18;97533.72;;;3.07;89.39
65800;BME280;52544;48.116;11.660;2023-02-12T05:55:44;97535.72;;;2.97;89.35
65800;BME280;52544;48.116;11.660;2023-02-12T05:58:10;97530.50;;;2.97;88.98
65800;BME280;52544;48.116;11.660;2023-02-12T06:00:35;97527.72;;;3.04;89.29
65800;BME280;52544;48.116;11.660;2023-02-12T06:03:01;97531.06;;;3.09;89.54
65800;BME280;52544;48.116;11.660;2023-02-12T06:05:26;97530.22;;;3.08;88.58
65800;BME280;52544;48.116;11.660;2023-02-12T06:07:52;97535.50;;;3.05;89.86
65800;BME280;52544;48.116;11.660;2023-02-12T06:10:17;97536.56;;;2.98;88.98
65800;BME280;52544;48.116;11.660;2023-02-12T06:12:43;97540.00;;;3.00;88.64
65800;BME280;52544;48.116;11.660;2023-02-12T06:15:08;97543.50;;;2.99;89.31
65800;BME280;52544;48.116;11.660;2023-02-12T06:17:34;97545.22;;;3.00;89.98
65800;BME280;52544;48.116;11.660;2023-02-12T06:19:59;97549.59;;;2.99;89.71
65800;BME280;52544;48.116;11.660;2023-02-12T06:22:26;97554.88;;;2.98;89.37
65800;BME280;52544;48.116;11.660;2023-02-12T06:24:52;97550.41;;;3.01;89.31
65800;BME280;52544;48.116;11.660;2023-02-12T06:27:17;97547.78;;;3.01;89.16
65800;BME280;52544;48.116;11.660;2023-02-12T06:29:43;97559.16;;;3.02;90.38
65800;BME280;52544;48.116;11.660;2023-02-12T06:32:08;97559.91;;;3.06;91.69
65800;BME280;52544;48.116;11.660;2023-02-12T06:34:34;97564.28;;;3.07;92.68
65800;BME280;52544;48.116;11.660;2023-02-12T06:36:59;97562.44;;;3.10;94.09
65800;BME280;52544;48.116;11.660;2023-02-12T06:39:24;97558.13;;;3.08;93.90
65800;BME280;52544;48.116;11.660;2023-02-12T06:41:50;97559.84;;;3.09;93.65
65800;BME280;52544;48.116;11.660;2023-02-12T06:44:15;97570.25;;;3.12;93.21
65800;BME280;52544;48.116;11.660;2023-02-12T06:46:41;97562.41;;;3.12;94.40
65800;BME280;52544;48.116;11.660;2023-02-12T06:49:06;97564.16;;;3.11;94.60
65800;BME280;52544;48.116;11.660;2023-02-12T06:51:32;97572.91;;;3.10;95.64
65800;BME280;52544;48.116;11.660;2023-02-12T06:53:58;97560.59;;;3.14;97.02
65800;BME280;52544;48.116;11.660;2023-02-12T06:56:24;97564.91;;;3.16;98.58
65800;BME280;52544;48.116;11.660;2023-02-12T06:58:56;97571.88;;;3.16;100.00
65800;BME280;52544;48.116;11.660;2023-02-12T07:01:24;97571.88;;;3.16;100.00
65800;BME280;52544;48.116;11.660;2023-02-12T07:03:53;97565.81;;;3.15;100.00
65800;BME280;52544;48.116;11.660;2023-02-12T07:06:20;97574.47;;;3.17;100.00
65800;BME280;52544;48.116;11.660;2023-02-12T07:08:46;97570.06;;;3.19;100.00
65800;BME280;52544;48.116;11.660;2023-02-12T07:11:12;97574.38;;;3.20;100.00
65800;BME280;52544;48.116;11.660;2023-02-12T07:13:39;97570.88;;;3.21;100.00
65800;BME280;52544;48.116;11.660;2023-02-12T07:16:06;97579.66;;;3.19;100.00
65800;BME280;52544;48.116;11.660;2023-02-12T07:18:36;97574.34;;;3.22;100.00
65800;BME280;52544;48.116;11.660;2023-02-12T07:21:03;97570.88;;;3.21;100.00
65800;BME280;52544;48.116;11.660;2023-02-12T07:23:30;97571.59;;;3.28;100.00
65800;BME280;52544;48.116;11.660;2023-02-12T07:25:57;97565.44;;;3.29;100.00
65800;BME280;52544;48.116;11.660;2023-02-12T07:28:23;97563.75;;;3.28;100.00
65800;BME280;52544;48.116;11.660;2023-02-12T07:30:49;97565.50;;;3.28;100.00
65800;BME280;52544;48.116;11.660;2023-02-12T07:33:14;97573.13;;;3.35;98.39
65800;BME280;52544;48.116;11.660;2023-02-12T07:35:40;97559.16;;;3.36;97.34
65800;BME280;52544;48.116;11.660;2023-02-12T07:38:45;97566.00;;;3.42;97.71
65800;BME280;52544;48.116;11.660;2023-02-12T07:43:39;97566.81;;;3.44;97.89
65800;BME280;52544;48.116;11.660;2023-02-12T07:46:16;97557.91;;;3.51;95.26
65800;BME280;52544;48.116;11.660;2023-02-12T07:48:43;97559.63;;;3.52;93.13
65800;BME280;52544;48.116;11.660;2023-02-12T07:51:10;97556.03;;;3.56;91.48
65800;BME280;52544;48.116;11.660;2023-02-12T07:53:37;97555.16;;;3.57;92.02
65800;BME280;52544;48.116;11.660;2023-02-12T07:56:05;97551.53;;;3.61;92.28
65800;BME280;52544;48.116;11.660;2023-02-12T07:58:30;97558.44;;;3.64;92.72
65800;BME280;52544;48.116;11.660;2023-02-12T08:00:55;97557.59;;;3.63;92.77
65800;BME280;52544;48.116;11.660;2023-02-12T08:03:21;97562.75;;;3.66;92.90
65800;BME280;52544;48.116;11.660;2023-02-12T08:05:46;97559.16;;;3.69;95.33
65800;BME280;52544;48.116;11.660;2023-02-12T08:08:12;97561.66;;;3.75;96.52
65800;BME280;52544;48.116;11.660;2023-02-12T08:10:37;97558.91;;;3.80;97.21
65800;BME280;52544;48.116;11.660;2023-02-12T08:13:02;97558.94;;;3.78;98.17
65800;BME280;52544;48.116;11.660;2023-02-12T08:15:28;97558.19;;;3.73;99.58
65800;BME280;52544;48.116;11.660;2023-02-12T08:17:53;97550.06;;;3.82;100.00
65800;BME280;52544;48.116;11.660;2023-02-12T08:20:19;97556.09;;;3.86;99.69
65800;BME280;52544;48.116;11.660;2023-02-12T08:22:45;97564.78;;;3.88;99.02
65800;BME280;52544;48.116;11.660;2023-02-12T08:25:10;97567.44;;;3.86;98.71
65800;BME280;52544;48.116;11.660;2023-02-12T08:27:35;97555.81;;;3.96;98.58
65800;BME280;52544;48.116;11.660;2023-02-12T08:30:01;97565.44;;;3.96;99.47
65800;BME280;52544;48.116;11.660;2023-02-12T08:32:26;97561.84;;;4.00;98.89
65800;BME280;52544;48.116;11.660;2023-02-12T08:34:53;97566.94;;;4.05;99.23
65800;BME280;52544;48.116;11.660;2023-02-12T08:37:19;97558.91;;;4.11;98.58
65800;BME280;52544;48.116;11.660;2023-02-12T08:39:44;97544.13;;;4.08;99.52
65800;BME280;52544;48.116;11.660;2023-02-12T08:42:09;97543.16;;;4.11;99.57
65800;BME280;52544;48.116;11.660;2023-02-12T08:44:35;97555.22;;;4.18;99.59
65800;BME280;52544;48.116;11.660;2023-02-12T08:47:01;97547.13;;;4.25;100.00
65800;BME280;52544;48.116;11.660;2023-02-12T08:49:28;97548.84;;;4.26;100.00
65800;BME280;52544;48.116;11.660;2023-02-12T08:51:56;97545.13;;;4.34;100.00
65800;BME280;52544;48.116;11.660;2023-02-12T08:54:24;97547.63;;;4.38;100.00
65800;BME280;52544;48.116;11.660;2023-02-12T08:56:54;97551.81;;;4.44;100.00
65800;BME280;52544;48.116;11.660;2023-02-12T08:59:20;97548.19;;;4.48;100.00
65800;BME280;52544;48.116;11.660;2023-02-12T09:01:49;97546.22;;;4.56;100.00
65800;BME280;52544;48.116;11.660;2023-02-12T09:04:17;97546.13;;;4.59;100.00
65800;BME280;52544;48.116;11.660;2023-02-12T09:06:44;97549.47;;;4.64;100.00
65800;BME280;52544;48.116;11.660;2023-02-12T09:09:10;97553.72;;;4.68;99.84
65800;BME280;52544;48.116;11.660;2023-02-12T09:11:35;97550.03;;;4.74;99.44
65800;BME280;52544;48.116;11.660;2023-02-12T09:14:04;97549.84;;;4.80;99.89
65800;BME280;52544;48.116;11.660;2023-02-12T09:16:45;97551.50;;;4.83;100.00
65800;BME280;52544;48.116;11.660;2023-02-12T09:19:12;97552.22;;;4.88;100.00
65800;BME280;52544;48.116;11.660;2023-02-12T09:21:38;97547.63;;;4.94;100.00
65800;BME280;52544;48.116;11.660;2023-02-12T09:24:03;97556.06;;;5.04;100.00
65800;BME280;52544;48.116;11.660;2023-02-12T09:26:29;97554.00;;;5.14;99.93
65800;BME280;52544;48.116;11.660;2023-02-12T09:28:54;97556.44;;;5.20;98.89
65800;BME280;52544;48.116;11.660;2023-02-12T09:31:25;97561.31;;;5.31;98.69
65800;BME280;52544;48.116;11.660;2023-02-12T09:33:52;97555.03;;;5.36;98.18
65800;BME280;52544;48.116;11.660;2023-02-12T09:36:19;97559.91;;;5.47;97.93
65800;BME280;52544;48.116;11.660;2023-02-12T09:38:45;97557.88;;;5.55;97.16
65800;BME280;52544;48.116;11.660;2023-02-12T09:44:17;97554.03;;;5.65;96.77
65800;BME280;52544;48.116;11.660;2023-02-12T09:47:24;97554.50;;;5.76;95.93
65800;BME280;52544;48.116;11.660;2023-02-12T09:52:45;97558.38;;;5.91;94.07
65800;BME280;52544;48.116;11.660;2023-02-12T09:55:14;97552.81;;;6.00;93.83
65800;BME280;52544;48.116;11.660;2023-02-12T09:57:41;97561.22;;;6.10;94.00
65800;BME280;52544;48.116;11.660;2023-02-12T10:02:41;97554.50;;;6.26;92.57
65800;BME280;52544;48.116;11.660;2023-02-12T10:05:15;97558.38;;;6.40;91.97
65800;BME280;52544;48.116;11.660;2023-02-12T10:15:36;97563.50;;;6.66;86.19
65800;BME280;52544;48.116;11.660;2023-02-12T10:18:37;97563.03;;;6.79;85.65
65800;BME280;52544;48.116;11.660;2023-02-12T10:24:35;97554.13;;;7.47;84.32
65800;BME280;52544;48.116;11.660;2023-02-12T10:27:14;97554.41;;;8.02;80.54
65800;BME280;52544;48.116;11.660;2023-02-12T10:29:41;97560.09;;;8.32;78.38
65800;BME280;52544;48.116;11.660;2023-02-12T10:32:29;97557.22;;;8.57;76.43
65800;BME280;52544;48.116;11.660;2023-02-12T10:34:57;97570.38;;;8.59;75.14
65800;BME280;52544;48.116;11.660;2023-02-12T10:40:28;97561.44;;;8.61;73.93
65800;BME280;52544;48.116;11.660;2023-02-12T10:42:57;97559.91;;;8.37;74.25
65800;BME280;52544;48.116;11.660;2023-02-12T10:45:32;97561.25;;;8.06;76.36
65800;BME280;52544;48.116;11.660;2023-02-12T10:48:07;97560.47;;;8.04;77.23
65800;BME280;52544;48.116;11.660;2023-02-12T10:53:37;97564.31;;;8.75;77.56
65800;BME280;52544;48.116;11.660;2023-02-12T10:58:56;97548.09;;;9.73;70.95
65800;BME280;52544;48.116;11.660;2023-02-12T11:01:36;97549.09;;;9.88;68.37
65800;BME280;52544;48.116;11.660;2023-02-12T11:04:27;97545.94;;;10.14;69.39
65800;BME280;52544;48.116;11.660;2023-02-12T11:07:05;97545.06;;;10.64;65.85
65800;BME280;52544;48.116;11.660;2023-02-12T11:09:40;97544.75;;;10.70;65.58
65800;BME280;52544;48.116;11.660;2023-02-12T11:12:43;97538.31;;;10.90;64.09
65800;BME280;52544;48.116;11.660;2023-02-12T11:15:13;97537.13;;;10.64;63.36
65800;BME280;52544;48.116;11.660;2023-02-12T11:17:41;97537.72;;;10.03;65.40
65800;BME280;52544;48.116;11.660;2023-02-12T11:23:02;97541.91;;;9.20;71.09
65800;BME280;52544;48.116;11.660;2023-02-12T11:25:30;97537.22;;;9.08;73.26
65800;BME280;52544;48.116;11.660;2023-02-12T11:28:17;97533.94;;;9.03;73.91
65800;BME280;52544;48.116;11.660;2023-02-12T11:31:00;97531.91;;;9.27;73.36
65800;BME280;52544;48.116;11.660;2023-02-12T11:33:35;97529.03;;;9.66;70.93
65800;BME280;52544;48.116;11.660;2023-02-12T11:38:45;97532.28;;;9.71;69.71
65800;BME280;52544;48.116;11.660;2023-02-12T11:41:26;97524.41;;;10.05;68.60
65800;BME280;52544;48.116;11.660;2023-02-12T11:43:55;97522.22;;;10.13;66.75
65800;BME280;52544;48.116;11.660;2023-02-12T11:46:23;97527.13;;;10.20;65.91
65800;BME280;52544;48.116;11.660;2023-02-12T11:48:51;97515.56;;;10.39;65.83
65800;BME280;52544;48.116;11.660;2023-02-12T11:51:20;97516.88;;;10.63;64.77
65800;BME280;52544;48.116;11.660;2023-02-12T11:53:50;97520.78;;;10.56;63.85
65800;BME280;52544;48.116;11.660;2023-02-12T11:56:16;97510.19;;;10.56;63.61
65800;BME280;52544;48.116;11.660;2023-02-12T11:58:42;97506.19;;;10.65;64.08
65800;BME280;52544;48.116;11.660;2023-02-12T12:01:20;97505.44;;;10.63;63.34
65800;BME280;52544;48.116;11.660;2023-02-12T12:09:19;97494.16;;;10.59;63.65
65800;BME280;52544;48.116;11.660;2023-02-12T12:14:48;97493.81;;;10.65;63.14
65800;BME280;52544;48.116;11.660;2023-02-12T12:17:42;97487.75;;;10.63;63.72
65800;BME280;52544;48.116;11.660;2023-02-12T12:21:00;97491.75;;;10.39;63.62
65800;BME280;52544;48.116;11.660;2023-02-12T12:23:42;97491.91;;;10.36;64.91
65800;BME280;52544;48.116;11.660;2023-02-12T12:26:28;97483.47;;;10.45;64.67
65800;BME280;52544;48.116;11.660;2023-02-12T12:29:23;97489.78;;;10.42;64.09
65800;BME280;52544;48.116;11.660;2023-02-12T12:32:02;97478.59;;;10.53;63.91
65800;BME280;52544;48.116;11.660;2023-02-12T12:34:27;97481.25;;;10.85;62.91
65800;BME280;52544;48.116;11.660;2023-02-12T12:39:26;97473.50;;;11.12;60.87
65800;BME280;52544;48.116;11.660;2023-02-12T12:49:53;97479.16;;;11.51;58.71
65800;BME280;52544;48.116;11.660;2023-02-12T12:52:49;97480.56;;;11.43;58.93
65800;BME280;52544;48.116;11.660;2023-02-12T12:58:29;97468.69;;;11.64;57.38
65800;BME280;52544;48.116;11.660;2023-02-12T13:04:20;97471.72;;;11.42;57.51
65800;BME280;52544;48.116;11.660;2023-02-12T13:10:14;97466.38;;;11.58;57.60
65800;BME280;52544;48.116;11.660;2023-02-12T13:12:58;97463.16;;;11.67;57.84
65800;BME280;52544;48.116;11.660;2023-02-12T13:15:42;97464.09;;;11.52;57.87
65800;BME280;52544;48.116;11.660;2023-02-12T13:21:09;97470.28;;;11.37;57.54
65800;BME280;52544;48.116;11.660;2023-02-12T13:23:44;97463.06;;;11.24;59.22
65800;BME280;52544;48.116;11.660;2023-02-12T13:26:42;97466.69;;;11.38;59.80
65800;BME280;52544;48.116;11.660;2023-02-12T13:29:18;97457.06;;;11.51;59.10
65800;BME280;52544;48.116;11.660;2023-02-12T13:31:48;97455.16;;;11.39;59.88
65800;BME280;52544;48.116;11.660;2023-02-12T13:34:16;97461.16;;;11.57;58.94
65800;BME280;52544;48.116;11.660;2023-02-12T13:36:42;97461.25;;;11.55;59.03
65800;BME280;52544;48.116;11.660;2023-02-12T13:39:24;97466.34;;;11.44;58.47
65800;BME280;52544;48.116;11.660;2023-02-12T13:47:20;97452.75;;;11.64;57.39
65800;BME280;52544;48.116;11.660;2023-02-12T13:53:12;97450.28;;;11.75;57.38
65800;BME280;52544;48.116;11.660;2023-02-12T13:56:10;97454.56;;;11.78;59.29
65800;BME280;52544;48.116;11.660;2023-02-12T13:58:46;97452.00;;;11.76;60.97
65800;BME280;52544;48.116;11.660;2023-02-12T14:01:38;97450.00;;;11.66;61.45
65800;BME280;52544;48.116;11.660;2023-02-12T14:07:12;97449.88;;;11.39;62.52
65800;BME280;52544;48.116;11.660;2023-02-12T14:09:40;97448.25;;;11.50;63.16
65800;BME280;52544;48.116;11.660;2023-02-12T14:12:16;97443.28;;;11.74;62.59
65800;BME280;52544;48.116;11.660;2023-02-12T14:14:45;97446.50;;;11.80;61.36
65800;BME280;52544;48.116;11.660;2023-02-12T14:24:54;97440.50;;;12.20;58.13
65800;BME280;52544;48.116;11.660;2023-02-12T14:27:44;97441.25;;;12.37;57.14
65800;BME280;52544;48.116;11.660;2023-02-12T14:35:39;97443.13;;;12.35;56.61
65800;BME280;52544;48.116;11.660;2023-02-12T14:43:03;97450.84;;;12.11;58.11
65800;BME280;52544;48.116;11.660;2023-02-12T14:45:46;97444.00;;;12.21;57.32
65800;BME280;52544;48.116;11.660;2023-02-12T14:48:39;97447.47;;;11.79;58.79
65800;BME280;52544;48.116;11.660;2023-02-12T14:51:10;97450.75;;;11.54;59.60
65800;BME280;52544;48.116;11.660;2023-02-12T14:53:39;97451.88;;;11.49;59.89
65800;BME280;52544;48.116;11.660;2023-02-12T14:56:06;97444.50;;;11.24;60.56
65800;BME280;52544;48.116;11.660;2023-02-12T14:58:34;97442.09;;;11.06;60.92
65800;BME280;52544;48.116;11.660;2023-02-12T15:01:02;97448.94;;;10.94;61.15
65800;BME280;52544;48.116;11.660;2023-02-12T15:06:22;97443.41;;;10.51;63.44
65800;BME280;52544;48.116;11.660;2023-02-12T15:09:07;97452.72;;;10.26;64.13
65800;BME280;52544;48.116;11.660;2023-02-12T15:11:47;97456.31;;;10.08;65.14
65800;BME280;52544;48.116;11.660;2023-02-12T15:14:19;97446.72;;;9.57;67.57
65800;BME280;52544;48.116;11.660;2023-02-12T15:19:33;97445.66;;;9.26;69.31
65800;BME280;52544;48.116;11.660;2023-02-12T15:22:02;97449.03;;;9.11;70.15
65800;BME280;52544;48.116;11.660;2023-02-12T15:24:28;97439.63;;;8.88;70.97
65800;BME280;52544;48.116;11.660;2023-02-12T15:26:56;97442.78;;;8.77;71.64